Time;durP1;ratioP1;P1;durP2;ratioP2;P2;SDS_P1;SDS_P2;PMS_P1;PMS_P2;Temp;Humidity;BMP_temperature;BMP_pressure;BME280_temperature;BME280_humidity;BME280_pressure;Samples;Min_cycle;Max_cycle;Signal;HPM_P1;HPM_P2
2024/04/14 00:01:03;;;;;;;23.65;16.45;;;;;;;;;;13396764;22;20739;-89
2024/04/14 00:06:10;;;;;;;24.90;16.42;;;;;;;;;;13397466;22;20905;-89
2024/04/14 00:11:14;;;;;;;23.17;16.98;;;;;;;;;;13400949;22;20351;-89
2024/04/14 00:16:18;;;;;;;22.83;16.52;;;;;;;;;;13398572;22;20431;-89
2024/04/14 00:21:25;;;;;;;22.63;15.98;;;;;;;;;;13400554;22;20433;-89
2024/04/14 00:26:30;;;;;;;22.43;16.00;;;;;;;;;;13401693;22;20323;-88
2024/04/14 00:31:34;;;;;;;24.30;17.00;;;;;;;;;;13401622;22;20683;-89
2024/04/14 00:36:42;;;;;;;22.30;15.75;;;;;;;;;;13401531;22;20327;-89
2024/04/14 00:41:46;;;;;;;21.90;15.38;;;;;;;;;;13401646;22;20414;-88
2024/04/14 00:46:51;;;;;;;21.15;15.93;;;;;;;;;;13400911;22;20455;-89
2024/04/14 00:51:58;;;;;;;20.50;14.98;;;;;;;;;;13400508;22;20332;-89
2024/04/14 00:57:02;;;;;;;20.75;15.77;;;;;;;;;;13401378;22;20611;-89
2024/04/14 01:02:06;;;;;;;20.93;14.87;;;;;;;;;;13401048;22;20331;-89
2024/04/14 01:07:14;;;;;;;18.33;13.90;;;;;;;;;;13401107;22;20331;-89
2024/04/14 01:12:18;;;;;;;19.47;14.73;;;;;;;;;;13400235;22;20319;-89
2024/04/14 01:17:22;;;;;;;22.83;15.43;;;;;;;;;;13399925;22;20347;-89
2024/04/14 01:22:28;;;;;;;19.98;14.60;;;;;;;;;;13401589;22;20941;-89
2024/04/14 01:27:35;;;;;;;17.27;13.53;;;;;;;;;;13401132;22;20327;-89
2024/04/14 01:32:40;;;;;;;18.17;13.50;;;;;;;;;;13401098;22;20335;-90
2024/04/14 01:37:44;;;;;;;19.13;13.30;;;;;;;;;;13400231;22;20331;-89
2024/04/14 01:42:50;;;;;;;17.80;13.87;;;;;;;;;;13396807;22;20421;-88
2024/04/14 01:47:54;;;;;;;17.70;13.60;;;;;;;;;;13398392;22;20327;-89
2024/04/14 01:52:58;;;;;;;20.52;13.85;;;;;;;;;;13398183;22;20420;-88
2024/04/14 01:58:05;;;;;;;19.58;14.52;;;;;;;;;;13398794;22;20331;-88
2024/04/14 02:03:09;;;;;;;18.05;14.20;;;;;;;;;;13399745;22;20331;-89
2024/04/14 02:08:13;;;;;;;19.88;14.85;;;;;;;;;;13398362;22;20327;-89
2024/04/14 02:13:19;;;;;;;22.02;14.90;;;;;;;;;;13399313;22;20423;-89
2024/04/14 02:18:23;;;;;;;21.55;15.55;;;;;;;;;;13398978;22;20323;-89
2024/04/14 02:23:27;;;;;;;22.73;14.65;;;;;;;;;;13398445;22;20414;-89
2024/04/14 02:28:33;;;;;;;18.77;14.15;;;;;;;;;;13398953;22;20320;-89
2024/04/14 02:33:38;;;;;;;21.33;14.13;;;;;;;;;;13399364;22;20319;-89
2024/04/14 02:38:42;;;;;;;20.65;14.55;;;;;;;;;;13397807;22;20769;-89
2024/04/14 02:43:49;;;;;;;19.90;13.95;;;;;;;;;;13397994;22;20333;-89
2024/04/14 02:48:53;;;;;;;17.42;13.70;;;;;;;;;;13398396;22;20412;-89
2024/04/14 02:53:57;;;;;;;19.80;14.60;;;;;;;;;;13399375;22;20423;-89
2024/04/14 02:59:03;;;;;;;21.35;14.13;;;;;;;;;;13397336;22;20435;-89
2024/04/14 03:04:09;;;;;;;19.63;14.35;;;;;;;;;;13398489;22;20339;-88
2024/04/14 03:09:13;;;;;;;20.57;14.47;;;;;;;;;;13398750;22;20411;-89
2024/04/14 03:14:19;;;;;;;20.30;14.35;;;;;;;;;;13397611;22;20418;-89
2024/04/14 03:19:23;;;;;;;19.53;13.87;;;;;;;;;;13398336;22;20491;-88
2024/04/14 03:24:27;;;;;;;22.43;16.00;;;;;;;;;;13397614;22;20319;-89
2024/04/14 03:29:34;;;;;;;21.92;15.73;;;;;;;;;;13397576;22;20332;-89
2024/04/14 03:34:38;;;;;;;22.73;15.57;;;;;;;;;;13397968;22;20327;-87
2024/04/14 03:39:42;;;;;;;21.10;15.37;;;;;;;;;;13398335;22;20335;-89
2024/04/14 03:44:49;;;;;;;21.98;15.05;;;;;;;;;;13397616;22;20331;-89
2024/04/14 03:49:53;;;;;;;23.42;15.40;;;;;;;;;;13397445;22;20422;-88
2024/04/14 03:54:57;;;;;;;21.13;14.73;;;;;;;;;;13397128;22;20406;-89
2024/04/14 04:00:03;;;;;;;22.38;15.35;;;;;;;;;;13397178;22;20343;-89
2024/04/14 04:05:08;;;;;;;20.42;14.98;;;;;;;;;;13398355;22;20328;-89
2024/04/14 04:10:12;;;;;;;22.00;15.02;;;;;;;;;;13397881;22;20323;-89
2024/04/14 04:15:19;;;;;;;20.07;14.77;;;;;;;;;;13397239;22;20415;-89
2024/04/14 04:20:22;;;;;;;20.53;14.80;;;;;;;;;;13394916;22;20336;-88
2024/04/14 04:25:26;;;;;;;18.27;13.70;;;;;;;;;;13395632;22;20422;-88
2024/04/14 04:30:33;;;;;;;20.67;14.93;;;;;;;;;;13395809;22;20395;-88
2024/04/14 04:35:37;;;;;;;20.47;14.30;;;;;;;;;;13395373;22;20418;-89
2024/04/14 04:40:41;;;;;;;21.52;15.35;;;;;;;;;;13397736;22;20794;-88
2024/04/14 04:45:47;;;;;;;23.20;15.38;;;;;;;;;;13396436;22;20324;-89
2024/04/14 04:50:51;;;;;;;19.88;14.70;;;;;;;;;;13398367;22;20335;-89
2024/04/14 04:55:55;;;;;;;20.23;14.63;;;;;;;;;;13400627;22;20339;-88
2024/04/14 05:01:02;;;;;;;20.58;14.52;;;;;;;;;;13399822;22;20327;-89
2024/04/14 05:06:06;;;;;;;19.88;15.20;;;;;;;;;;13400316;22;20327;-88
2024/04/14 05:11:10;;;;;;;21.10;16.13;;;;;;;;;;13401036;22;20703;-89
2024/04/14 05:16:17;;;;;;;21.17;14.93;;;;;;;;;;13400168;21;20328;-89
2024/04/14 05:21:21;;;;;;;22.97;15.80;;;;;;;;;;13399930;22;20327;-89
2024/04/14 05:26:25;;;;;;;21.48;14.70;;;;;;;;;;13399440;22;20810;-88
2024/04/14 05:31:31;;;;;;;20.05;14.98;;;;;;;;;;13399518;22;20335;-89
2024/04/14 05:36:35;;;;;;;21.05;14.77;;;;;;;;;;13399517;22;20324;-89
2024/04/14 05:41:39;;;;;;;22.48;15.10;;;;;;;;;;13400122;22;20323;-88
2024/04/14 05:46:45;;;;;;;21.17;15.32;;;;;;;;;;13398896;22;20458;-89
2024/04/14 05:51:49;;;;;;;23.45;15.32;;;;;;;;;;13398658;22;20410;-89
2024/04/14 05:56:53;;;;;;;22.30;14.53;;;;;;;;;;13400983;22;20585;-88
2024/04/14 06:02:00;;;;;;;18.40;12.90;;;;;;;;;;13398610;22;20457;-89
2024/04/14 06:07:04;;;;;;;20.93;13.53;;;;;;;;;;13399401;22;20327;-89
2024/04/14 06:12:09;;;;;;;17.52;13.57;;;;;;;;;;13399663;22;20416;-88
2024/04/14 06:17:15;;;;;;;15.95;12.02;;;;;;;;;;13397215;22;20336;-88
2024/04/14 06:22:19;;;;;;;16.83;11.60;;;;;;;;;;13397646;22;20331;-89
2024/04/14 06:27:23;;;;;;;15.00;11.15;;;;;;;;;;13398281;22;20319;-88
2024/04/14 06:32:30;;;;;;;17.17;11.95;;;;;;;;;;13397311;22;20339;-89
2024/04/14 06:37:34;;;;;;;16.98;11.65;;;;;;;;;;13399049;22;20453;-89
2024/04/14 06:42:39;;;;;;;16.50;10.65;;;;;;;;;;13399583;22;20312;-89
2024/04/14 06:47:45;;;;;;;12.48;9.60;;;;;;;;;;13398213;22;20422;-89
2024/04/14 06:52:49;;;;;;;12.48;9.70;;;;;;;;;;13398502;22;20331;-89
2024/04/14 06:57:53;;;;;;;13.38;9.77;;;;;;;;;;13397743;22;20440;-89
2024/04/14 07:02:59;;;;;;;15.55;9.55;;;;;;;;;;13397801;22;20463;-89
2024/04/14 07:08:03;;;;;;;11.10;8.00;;;;;;;;;;13397278;22;20323;-89
2024/04/14 07:13:07;;;;;;;11.73;9.10;;;;;;;;;;13396534;22;20335;-88
2024/04/14 07:18:15;;;;;;;12.57;9.00;;;;;;;;;;13397027;22;20328;-89
2024/04/14 07:23:18;;;;;;;14.48;10.13;;;;;;;;;;13396139;22;20387;-89
2024/04/14 07:28:22;;;;;;;10.85;8.38;;;;;;;;;;13397566;22;20323;-89
2024/04/14 07:33:29;;;;;;;13.07;9.05;;;;;;;;;;13395699;22;20343;-89
2024/04/14 07:38:33;;;;;;;12.10;8.68;;;;;;;;;;13396526;22;20331;-88
2024/04/14 07:43:36;;;;;;;13.35;8.43;;;;;;;;;;13394821;22;20446;-89
2024/04/14 07:48:43;;;;;;;11.27;8.65;;;;;;;;;;13395890;22;20323;-89
2024/04/14 07:53:49;;;;;;;11.43;9.07;;;;;;;;;;13396361;22;20442;-89
2024/04/14 07:58:53;;;;;;;10.70;8.27;;;;;;;;;;13395391;22;20331;-88
2024/04/14 08:04:01;;;;;;;13.13;9.27;;;;;;;;;;13394756;22;20328;-88
2024/04/14 08:09:05;;;;;;;13.87;9.17;;;;;;;;;;13394713;22;20332;-89
2024/04/14 08:14:10;;;;;;;13.02;9.73;;;;;;;;;;13393394;22;20323;-88
2024/04/14 08:19:17;;;;;;;12.57;10.05;;;;;;;;;;13394815;22;20335;-89
2024/04/14 08:24:20;;;;;;;13.00;9.23;;;;;;;;;;13395699;22;20355;-87
2024/04/14 08:29:25;;;;;;;11.70;8.80;;;;;;;;;;13399629;21;20315;-90
2024/04/14 08:34:32;;;;;;;11.32;8.32;;;;;;;;;;13399481;21;20324;-90
2024/04/14 08:39:36;;;;;;;11.23;8.00;;;;;;;;;;13399090;22;20331;-89
2024/04/14 08:44:42;;;;;;;11.45;8.20;;;;;;;;;;13398204;22;20334;-89
2024/04/14 08:49:50;;;;;;;10.40;8.00;;;;;;;;;;13384889;22;20438;-87
2024/04/14 08:54:54;;;;;;;14.50;7.93;;;;;;;;;;13395096;22;20439;-89
2024/04/14 09:00:01;;;;;;;9.83;7.37;;;;;;;;;;13397000;22;20331;-90
2024/04/14 09:05:10;;;;;;;7.45;6.05;;;;;;;;;;13396660;22;20339;-89
2024/04/14 09:10:14;;;;;;;7.90;6.00;;;;;;;;;;13394020;22;20323;-90
2024/04/14 09:15:18;;;;;;;8.18;6.63;;;;;;;;;;13395334;22;20426;-90
2024/04/14 09:20:25;;;;;;;7.37;6.30;;;;;;;;;;13395932;22;20415;-90
2024/04/14 09:25:29;;;;;;;11.00;8.20;;;;;;;;;;13394280;22;20479;-89
2024/04/14 09:35:40;;;;;;;13.23;7.70;;;;;;;;;;13377683;22;20383;-87
2024/04/14 09:40:45;;;;;;;11.88;7.85;;;;;;;;;;13380118;22;20451;-85
2024/04/14 09:45:49;;;;;;;10.20;8.48;;;;;;;;;;13377531;22;20492;-88
2024/04/14 09:50:59;;;;;;;12.55;10.02;;;;;;;;;;13376965;22;20359;-87
2024/04/14 09:56:03;;;;;;;57.65;36.63;;;;;;;;;;13381333;22;20363;-87
2024/04/14 10:01:10;;;;;;;14.63;9.77;;;;;;;;;;13380940;22;20355;-87
2024/04/14 10:06:18;;;;;;;11.98;8.82;;;;;;;;;;13383349;22;20367;-87
2024/04/14 10:11:22;;;;;;;13.88;9.05;;;;;;;;;;13374540;22;20459;-88
2024/04/14 10:16:28;;;;;;;12.85;9.45;;;;;;;;;;13367126;21;20331;-88
2024/04/14 10:21:35;;;;;;;15.20;8.83;;;;;;;;;;13363144;22;20339;-80
2024/04/14 10:26:39;;;;;;;13.45;9.15;;;;;;;;;;13371547;21;20435;-85
2024/04/14 10:31:44;;;;;;;14.38;9.60;;;;;;;;;;13363377;21;20344;-88
2024/04/14 10:36:58;;;;;;;13.25;9.30;;;;;;;;;;13371808;21;20426;-87
2024/04/14 10:42:02;;;;;;;14.52;11.20;;;;;;;;;;13362889;21;20429;-86
2024/04/14 10:47:06;;;;;;;16.70;11.82;;;;;;;;;;13373724;21;20347;-87
2024/04/14 10:52:13;;;;;;;17.25;12.75;;;;;;;;;;13372913;21;20540;-85
2024/04/14 10:57:17;;;;;;;14.73;10.05;;;;;;;;;;13363213;21;20347;-80
2024/04/14 11:02:20;;;;;;;15.30;10.43;;;;;;;;;;13367330;21;21141;-81
2024/04/14 11:07:27;;;;;;;12.47;9.87;;;;;;;;;;13361485;21;20335;-81
2024/04/14 11:12:31;;;;;;;28.40;17.05;;;;;;;;;;13366343;21;20807;-81
2024/04/14 11:17:35;;;;;;;14.68;10.48;;;;;;;;;;13364008;21;20347;-82
2024/04/14 11:22:42;;;;;;;15.98;10.88;;;;;;;;;;13364714;21;20404;-82
2024/04/14 11:27:47;;;;;;;15.52;11.45;;;;;;;;;;13368907;22;20327;-81
2024/04/14 11:32:51;;;;;;;16.83;11.07;;;;;;;;;;13368178;21;20431;-81
2024/04/14 11:37:58;;;;;;;15.38;10.52;;;;;;;;;;13365470;21;20395;-81
2024/04/14 11:43:02;;;;;;;13.73;10.20;;;;;;;;;;13363529;21;20351;-82
2024/04/14 11:48:07;;;;;;;16.00;12.25;;;;;;;;;;13365245;21;20343;-82
2024/04/14 11:53:14;;;;;;;17.15;10.63;;;;;;;;;;13366820;21;20343;-82
2024/04/14 11:58:22;;;;;;;11.40;8.93;;;;;;;;;;13375129;21;20380;-86
2024/04/14 12:03:26;;;;;;;15.18;10.88;;;;;;;;;;13368291;21;20464;-87
2024/04/14 12:08:32;;;;;;;13.97;10.63;;;;;;;;;;13374676;21;20431;-88
2024/04/14 12:13:36;;;;;;;11.40;9.32;;;;;;;;;;13375455;21;20375;-88
2024/04/14 12:18:40;;;;;;;12.57;9.20;;;;;;;;;;13374500;21;20856;-87
2024/04/14 12:23:46;;;;;;;10.90;8.18;;;;;;;;;;13384278;22;20355;-88
2024/04/14 12:28:50;;;;;;;11.67;8.57;;;;;;;;;;13368310;22;20327;-79
2024/04/14 12:33:54;;;;;;;9.60;8.10;;;;;;;;;;13377826;22;20375;-86
2024/04/14 12:39:01;;;;;;;11.93;8.77;;;;;;;;;;13377871;22;20382;-82
2024/04/14 12:44:06;;;;;;;8.63;6.82;;;;;;;;;;13379193;21;20496;-90
2024/04/14 12:49:10;;;;;;;8.37;6.33;;;;;;;;;;13383919;22;20800;-89
2024/04/14 12:54:17;;;;;;;9.95;6.03;;;;;;;;;;13390531;22;20331;-89
2024/04/14 12:59:21;;;;;;;10.23;6.88;;;;;;;;;;13393007;22;20323;-89
2024/04/14 13:04:25;;;;;;;7.68;5.55;;;;;;;;;;13389935;22;20402;-89
2024/04/14 13:09:32;;;;;;;9.25;7.13;;;;;;;;;;13393015;22;20451;-89
2024/04/14 13:14:36;;;;;;;8.98;5.50;;;;;;;;;;13395841;22;20415;-89
2024/04/14 13:19:40;;;;;;;7.55;6.07;;;;;;;;;;13398816;22;20383;-88
2024/04/14 13:24:47;;;;;;;7.47;5.70;;;;;;;;;;13397435;22;20328;-90
2024/04/14 13:29:51;;;;;;;8.05;5.75;;;;;;;;;;13397390;22;20744;-89
2024/04/14 13:34:55;;;;;;;9.50;6.15;;;;;;;;;;13396933;22;20319;-89
2024/04/14 13:40:02;;;;;;;7.72;5.80;;;;;;;;;;13397159;22;20366;-89
2024/04/14 13:45:06;;;;;;;9.10;5.77;;;;;;;;;;13397055;22;20443;-89
2024/04/14 13:50:10;;;;;;;8.30;5.00;;;;;;;;;;13396385;22;20327;-90
2024/04/14 13:55:17;;;;;;;7.60;5.05;;;;;;;;;;13399949;22;20440;-89
2024/04/14 14:00:21;;;;;;;6.60;4.63;;;;;;;;;;13395520;22;20490;-89
2024/04/14 14:05:26;;;;;;;6.63;4.63;;;;;;;;;;13396043;22;20335;-89
2024/04/14 14:10:32;;;;;;;7.10;4.63;;;;;;;;;;13395473;22;20463;-89
2024/04/14 14:15:36;;;;;;;9.63;4.90;;;;;;;;;;13397351;22;20328;-90
2024/04/14 14:20:40;;;;;;;6.27;4.20;;;;;;;;;;13403638;22;20401;-89
2024/04/14 14:25:49;;;;;;;6.93;4.60;;;;;;;;;;13397231;22;20430;-89
2024/04/14 14:30:53;;;;;;;6.22;4.68;;;;;;;;;;13397089;22;20400;-90
2024/04/14 14:41:19;;;;;;;6.07;4.13;;;;;;;;;;13403821;22;20344;-89
2024/04/14 14:46:23;;;;;;;5.53;3.97;;;;;;;;;;13398108;22;20343;-90
2024/04/14 14:51:27;;;;;;;7.55;3.88;;;;;;;;;;13396381;22;20415;-89
2024/04/14 14:56:34;;;;;;;7.05;4.38;;;;;;;;;;13396476;22;20374;-89
2024/04/14 15:01:38;;;;;;;5.47;3.80;;;;;;;;;;13395831;22;20335;-89
2024/04/14 15:06:42;;;;;;;6.87;4.30;;;;;;;;;;13396045;22;20331;-89
2024/04/14 15:11:48;;;;;;;9.88;6.60;;;;;;;;;;13396758;22;20328;-89
2024/04/14 15:16:52;;;;;;;9.82;7.32;;;;;;;;;;13396345;22;20371;-88
2024/04/14 15:21:56;;;;;;;8.80;6.47;;;;;;;;;;13396887;22;20648;-89
2024/04/14 15:27:02;;;;;;;9.23;7.45;;;;;;;;;;13396631;21;20327;-86
2024/04/14 15:32:07;;;;;;;8.63;7.18;;;;;;;;;;13398579;22;20339;-90
2024/04/14 15:37:11;;;;;;;8.15;6.93;;;;;;;;;;13398197;22;20332;-89
2024/04/14 15:42:18;;;;;;;8.73;7.38;;;;;;;;;;13397055;22;20335;-90
2024/04/14 15:47:22;;;;;;;10.98;6.97;;;;;;;;;;13395480;22;20331;-90
2024/04/14 15:52:26;;;;;;;7.65;6.85;;;;;;;;;;13396304;22;20430;-89
2024/04/14 15:57:34;;;;;;;11.80;8.43;;;;;;;;;;13397018;22;20404;-90
2024/04/14 16:02:38;;;;;;;11.55;6.95;;;;;;;;;;13397580;22;20339;-90
2024/04/14 16:07:41;;;;;;;7.20;6.40;;;;;;;;;;13397484;22;20411;-90
2024/04/14 16:12:48;;;;;;;7.85;6.05;;;;;;;;;;13399252;22;20409;-89
2024/04/14 16:17:52;;;;;;;7.32;5.68;;;;;;;;;;13396982;22;20402;-90
2024/04/14 16:22:56;;;;;;;7.67;5.07;;;;;;;;;;13398085;22;20421;-89
2024/04/14 16:28:02;;;;;;;4.93;4.30;;;;;;;;;;13397854;22;20339;-89
2024/04/14 16:33:07;;;;;;;8.88;4.97;;;;;;;;;;13394212;22;20332;-85
2024/04/14 16:38:10;;;;;;;5.20;3.97;;;;;;;;;;13399468;22;20319;-92
2024/04/14 16:43:17;;;;;;;6.37;4.20;;;;;;;;;;13397347;22;20332;-92
2024/04/14 16:48:22;;;;;;;5.70;4.05;;;;;;;;;;13396890;22;20332;-92
2024/04/14 16:53:25;;;;;;;4.93;3.53;;;;;;;;;;13399216;22;20327;-92
2024/04/14 16:58:32;;;;;;;4.78;4.25;;;;;;;;;;13396554;21;20332;-93
2024/04/14 17:03:36;;;;;;;4.22;3.80;;;;;;;;;;13398554;22;20335;-92
2024/04/14 17:08:40;;;;;;;5.30;3.50;;;;;;;;;;13392019;22;20339;-90
2024/04/14 17:13:46;;;;;;;4.50;3.50;;;;;;;;;;13397499;22;20335;-92
2024/04/14 17:18:50;;;;;;;5.07;3.60;;;;;;;;;;13365059;21;20402;-90
2024/04/14 17:23:54;;;;;;;5.37;3.47;;;;;;;;;;13395459;22;20399;-91
2024/04/14 17:29:01;;;;;;;5.10;3.20;;;;;;;;;;13423774;21;20457;-90
2024/04/14 17:34:06;;;;;;;5.00;3.58;;;;;;;;;;13501064;21;20409;-91
2024/04/14 17:39:11;;;;;;;3.90;3.50;;;;;;;;;;13503221;21;20437;-90
2024/04/14 17:44:18;;;;;;;8.63;4.00;;;;;;;;;;13503660;21;20327;-89
2024/04/14 17:49:22;;;;;;;6.18;3.22;;;;;;;;;;13497648;21;20368;-89
2024/04/14 17:54:25;;;;;;;9.15;3.40;;;;;;;;;;13503345;21;20427;-88
2024/04/14 17:59:34;;;;;;;6.07;3.80;;;;;;;;;;13502943;21;20325;-89
2024/04/14 18:04:39;;;;;;;4.73;3.50;;;;;;;;;;13502116;21;20333;-89
2024/04/14 18:09:43;;;;;;;6.13;3.93;;;;;;;;;;13499327;21;20337;-90
2024/04/14 18:14:49;;;;;;;6.93;3.90;;;;;;;;;;13491635;21;20365;-89
2024/04/14 18:19:53;;;;;;;6.63;3.75;;;;;;;;;;13492276;21;20417;-89
2024/04/14 18:24:57;;;;;;;5.85;3.25;;;;;;;;;;13493124;21;20716;-89
2024/04/14 18:30:04;;;;;;;5.35;2.97;;;;;;;;;;13450321;21;20479;-90
2024/04/14 18:35:08;;;;;;;4.90;3.20;;;;;;;;;;13471742;21;20459;-89
2024/04/14 18:40:12;;;;;;;4.53;3.38;;;;;;;;;;13482904;21;20514;-90
2024/04/14 18:45:19;;;;;;;6.57;3.55;;;;;;;;;;13491184;21;20461;-90
2024/04/14 18:50:23;;;;;;;7.30;4.53;;;;;;;;;;13493588;21;20340;-89
2024/04/14 18:55:27;;;;;;;5.37;4.07;;;;;;;;;;13493391;21;20484;-86
2024/04/14 19:00:33;;;;;;;7.82;4.32;;;;;;;;;;13492837;21;20321;-90
2024/04/14 19:05:39;;;;;;;5.65;4.57;;;;;;;;;;13495021;21;20895;-91
2024/04/14 19:10:42;;;;;;;8.13;4.17;;;;;;;;;;13492306;21;20814;-91
2024/04/14 19:15:50;;;;;;;5.95;4.20;;;;;;;;;;13492615;21;20792;-90
2024/04/14 19:20:54;;;;;;;6.85;3.92;;;;;;;;;;13493213;21;20344;-90
2024/04/14 19:26:02;;;;;;;8.03;4.37;;;;;;;;;;13493767;21;21311;-91
2024/04/14 19:31:10;;;;;;;7.70;4.10;;;;;;;;;;13491066;21;20349;-91
2024/04/14 19:36:14;;;;;;;6.80;4.03;;;;;;;;;;13491208;21;21187;-90
2024/04/14 19:41:19;;;;;;;5.30;3.73;;;;;;;;;;13487960;21;20431;-90
2024/04/14 19:46:25;;;;;;;6.35;4.07;;;;;;;;;;13490225;21;20428;-90
2024/04/14 19:51:30;;;;;;;7.43;4.30;;;;;;;;;;13489940;21;20832;-91
2024/04/14 19:56:34;;;;;;;8.63;4.65;;;;;;;;;;13491473;21;20332;-90
2024/04/14 20:01:41;;;;;;;7.53;5.30;;;;;;;;;;13488709;21;20409;-92
2024/04/14 20:06:45;;;;;;;8.32;5.00;;;;;;;;;;13489514;21;20457;-91
2024/04/14 20:11:49;;;;;;;7.50;5.60;;;;;;;;;;13490125;21;20470;-90
2024/04/14 20:16:56;;;;;;;9.27;6.03;;;;;;;;;;13490476;21;20570;-91
2024/04/14 20:21:59;;;;;;;7.10;5.72;;;;;;;;;;13494240;21;20468;-88
2024/04/14 20:27:03;;;;;;;10.30;5.95;;;;;;;;;;13497315;21;20352;-91
2024/04/14 20:32:10;;;;;;;7.47;5.50;;;;;;;;;;13494500;21;20380;-91
2024/04/14 20:37:14;;;;;;;7.35;6.10;;;;;;;;;;13497677;21;21109;-91
2024/04/14 20:42:21;;;;;;;7.93;6.20;;;;;;;;;;13495413;21;20510;-89
2024/04/14 20:47:28;;;;;;;8.18;6.05;;;;;;;;;;13495868;21;20340;-90
2024/04/14 20:52:32;;;;;;;9.25;6.80;;;;;;;;;;13497361;21;20445;-91
2024/04/14 20:57:36;;;;;;;8.65;7.05;;;;;;;;;;13494982;21;20437;-89
2024/04/14 21:02:42;;;;;;;10.55;7.00;;;;;;;;;;13496922;21;20341;-92
2024/04/14 21:07:46;;;;;;;11.82;7.13;;;;;;;;;;13497795;21;20348;-91
2024/04/14 21:12:50;;;;;;;9.93;7.47;;;;;;;;;;13496135;21;20357;-91
2024/04/14 21:17:56;;;;;;;8.98;6.95;;;;;;;;;;13495399;21;20419;-91
2024/04/14 21:23:00;;;;;;;11.18;8.45;;;;;;;;;;13496399;21;21100;-91
2024/04/14 21:28:04;;;;;;;12.85;7.40;;;;;;;;;;13495145;21;20349;-91
2024/04/14 21:33:11;;;;;;;9.07;7.17;;;;;;;;;;13495074;21;20421;-93
2024/04/14 21:38:15;;;;;;;12.23;6.57;;;;;;;;;;13494604;21;20452;-88
2024/04/14 21:43:19;;;;;;;9.60;6.80;;;;;;;;;;13502096;21;20415;-89
2024/04/14 21:48:26;;;;;;;9.25;7.22;;;;;;;;;;13505889;21;20440;-89
2024/04/14 21:53:30;;;;;;;9.70;7.97;;;;;;;;;;13506579;21;20402;-89
2024/04/14 21:58:35;;;;;;;12.37;7.27;;;;;;;;;;13505921;21;20333;-88
2024/04/14 22:03:42;;;;;;;10.70;7.50;;;;;;;;;;13505487;21;20341;-89
2024/04/14 22:08:46;;;;;;;10.65;7.88;;;;;;;;;;13505622;21;20344;-89
2024/04/14 22:13:49;;;;;;;11.68;8.02;;;;;;;;;;13505319;21;20337;-90
2024/04/14 22:18:56;;;;;;;10.85;7.47;;;;;;;;;;13505074;21;20337;-89
2024/04/14 22:24:00;;;;;;;9.57;7.63;;;;;;;;;;13505965;21;20329;-90
2024/04/14 22:29:04;;;;;;;11.57;8.73;;;;;;;;;;13506601;21;21048;-90
2024/04/14 22:34:10;;;;;;;11.95;8.90;;;;;;;;;;13505527;21;20345;-90
2024/04/14 22:39:14;;;;;;;12.13;9.80;;;;;;;;;;13506905;21;20328;-88
2024/04/14 22:44:18;;;;;;;13.77;10.17;;;;;;;;;;13507990;21;20328;-90
2024/04/14 22:49:24;;;;;;;14.13;10.03;;;;;;;;;;13506126;21;20786;-91
2024/04/14 22:54:28;;;;;;;13.15;9.82;;;;;;;;;;13505557;21;20325;-91
2024/04/14 22:59:32;;;;;;;15.00;9.87;;;;;;;;;;13504544;21;20787;-91
2024/04/14 23:04:39;;;;;;;12.10;9.10;;;;;;;;;;13506391;21;20767;-92
2024/04/14 23:09:43;;;;;;;14.15;9.43;;;;;;;;;;13504748;21;20325;-91
2024/04/14 23:14:47;;;;;;;11.53;8.73;;;;;;;;;;13503181;21;20496;-92
2024/04/14 23:19:54;;;;;;;10.17;8.30;;;;;;;;;;13505596;22;20414;-90
2024/04/14 23:24:58;;;;;;;11.73;7.88;;;;;;;;;;13504292;21;20325;-91
2024/04/14 23:30:02;;;;;;;12.68;8.38;;;;;;;;;;13503753;21;20405;-91
2024/04/14 23:35:08;;;;;;;10.20;8.20;;;;;;;;;;13504334;21;20336;-92
2024/04/14 23:40:12;;;;;;;11.23;8.43;;;;;;;;;;13505224;21;20321;-91
2024/04/14 23:50:52;;;;;;;11.32;8.25;;;;;;;;;;13042820;21;20522;-81
2024/04/14 23:55:56;;;;;;;11.97;8.70;;;;;;;;;;13377734;22;20462;-81
